Time;durP1;ratioP1;P1;durP2;ratioP2;P2;SDS_P1;SDS_P2;PMS_P1;PMS_P2;Temp;Humidity;BMP_temperature;BMP_pressure;BME280_temperature;BME280_humidity;BME280_pressure;Samples;Min_cycle;Max_cycle;Signal;HPM_P1;HPM_P2
2022/10/09 00:00:12;;;;;;;23.70;19.25;;;;;;;;;;6266080;28;20045;-65
2022/10/09 00:03:16;;;;;;;27.43;20.83;;;;;;;;;;6252724;28;20089;-65
2022/10/09 00:06:19;;;;;;;28.15;22.58;;;;;;;;;;6255912;28;20122;-65
2022/10/09 00:09:21;;;;;;;29.00;22.65;;;;;;;;;;6261202;28;20210;-64
2022/10/09 00:12:24;;;;;;;31.13;22.95;;;;;;;;;;6251525;28;20380;-64
2022/10/09 00:15:25;;;;;;;35.60;23.30;;;;;;;;;;6252936;28;20061;-65
2022/10/09 00:18:27;;;;;;;31.65;23.60;;;;;;;;;;6257866;28;20272;-64
2022/10/09 00:21:30;;;;;;;33.80;23.90;;;;;;;;;;6257609;28;20053;-66
2022/10/09 00:24:32;;;;;;;30.58;24.08;;;;;;;;;;6257374;28;20044;-67
2022/10/09 00:27:34;;;;;;;34.70;24.20;;;;;;;;;;6259837;28;20301;-65
2022/10/09 00:30:39;;;;;;;29.15;22.35;;;;;;;;;;6256913;28;20101;-64
2022/10/09 00:33:41;;;;;;;28.23;22.92;;;;;;;;;;6250661;28;20050;-64
2022/10/09 00:36:42;;;;;;;30.77;23.85;;;;;;;;;;6255019;28;20053;-64
2022/10/09 00:39:44;;;;;;;35.42;24.85;;;;;;;;;;6273744;28;20321;-65
2022/10/09 00:42:47;;;;;;;29.77;23.48;;;;;;;;;;6278339;28;20036;-65
2022/10/09 00:45:51;;;;;;;34.05;23.92;;;;;;;;;;6261282;28;20320;-65
2022/10/09 00:48:58;;;;;;;33.40;24.35;;;;;;;;;;6252556;28;20096;-67
2022/10/09 00:52:02;;;;;;;33.50;24.75;;;;;;;;;;6254488;28;20046;-65
2022/10/09 00:55:05;;;;;;;33.63;24.33;;;;;;;;;;6253182;28;20045;-65
2022/10/09 00:58:08;;;;;;;34.03;23.63;;;;;;;;;;6254552;28;20060;-65
2022/10/09 01:01:10;;;;;;;30.60;23.65;;;;;;;;;;6252637;28;20322;-66
2022/10/09 01:04:12;;;;;;;32.95;25.92;;;;;;;;;;6252940;28;20050;-65
2022/10/09 01:07:30;;;;;;;33.30;24.90;;;;;;;;;;6254400;28;20053;-66
2022/10/09 01:10:37;;;;;;;32.78;24.40;;;;;;;;;;6251794;28;20041;-66
2022/10/09 01:13:46;;;;;;;31.58;23.30;;;;;;;;;;6257480;28;20072;-65
2022/10/09 01:16:51;;;;;;;37.53;27.63;;;;;;;;;;6238918;28;20049;-65
2022/10/09 01:20:04;;;;;;;32.70;25.98;;;;;;;;;;6255904;28;20348;-64
2022/10/09 01:23:35;;;;;;;31.05;25.40;;;;;;;;;;6254403;28;20080;-64
2022/10/09 01:26:54;;;;;;;35.35;26.83;;;;;;;;;;6253904;28;20100;-65
2022/10/09 01:29:58;;;;;;;33.22;26.58;;;;;;;;;;6242699;28;20053;-64
2022/10/09 01:33:01;;;;;;;39.78;27.75;;;;;;;;;;6253467;28;20053;-64
2022/10/09 01:36:03;;;;;;;37.55;28.33;;;;;;;;;;6249792;28;20217;-65
2022/10/09 01:39:07;;;;;;;37.83;28.30;;;;;;;;;;6253323;28;20052;-64
2022/10/09 01:42:11;;;;;;;36.63;27.02;;;;;;;;;;6256782;28;20045;-67
2022/10/09 01:45:13;;;;;;;38.92;30.48;;;;;;;;;;6255545;28;20325;-67
2022/10/09 01:48:18;;;;;;;40.88;30.35;;;;;;;;;;6254406;28;20048;-66
2022/10/09 01:51:22;;;;;;;44.35;30.60;;;;;;;;;;6251996;28;20348;-69
2022/10/09 01:54:28;;;;;;;44.35;30.80;;;;;;;;;;6251117;28;20045;-66
2022/10/09 01:57:35;;;;;;;44.83;31.27;;;;;;;;;;6257028;28;20045;-67
2022/10/09 02:00:40;;;;;;;42.95;31.50;;;;;;;;;;6241450;28;20052;-66
2022/10/09 02:03:43;;;;;;;41.78;31.05;;;;;;;;;;6256015;28;20090;-66
2022/10/09 02:06:46;;;;;;;43.15;31.77;;;;;;;;;;6249205;28;20051;-65
2022/10/09 02:09:47;;;;;;;41.45;31.40;;;;;;;;;;6254570;28;20359;-65
2022/10/09 02:12:53;;;;;;;44.38;33.88;;;;;;;;;;6256031;28;20103;-66
2022/10/09 02:15:58;;;;;;;41.70;31.10;;;;;;;;;;6258340;28;20045;-65
2022/10/09 02:19:03;;;;;;;44.00;31.33;;;;;;;;;;6252853;28;20069;-65
2022/10/09 02:22:08;;;;;;;41.50;31.33;;;;;;;;;;6257839;28;20064;-66
2022/10/09 02:25:10;;;;;;;44.25;31.00;;;;;;;;;;6263586;28;20057;-66
2022/10/09 02:28:13;;;;;;;42.30;31.15;;;;;;;;;;6260212;28;20080;-67
2022/10/09 02:31:18;;;;;;;43.40;30.52;;;;;;;;;;6262603;28;20045;-66
2022/10/09 02:34:20;;;;;;;42.55;30.55;;;;;;;;;;6255736;28;20159;-65
2022/10/09 02:37:21;;;;;;;44.67;29.77;;;;;;;;;;6266658;28;20095;-67
2022/10/09 02:40:23;;;;;;;43.13;29.95;;;;;;;;;;6256910;28;20054;-66
2022/10/09 02:43:26;;;;;;;40.90;30.58;;;;;;;;;;6257841;28;20357;-65
2022/10/09 02:46:28;;;;;;;38.20;29.73;;;;;;;;;;6259855;28;20103;-66
2022/10/09 02:49:29;;;;;;;41.35;30.27;;;;;;;;;;6259266;28;20049;-66
2022/10/09 02:52:31;;;;;;;45.10;30.75;;;;;;;;;;6261088;28;20045;-66
2022/10/09 02:55:32;;;;;;;39.20;29.85;;;;;;;;;;6260274;28;20065;-65
2022/10/09 02:58:36;;;;;;;44.72;32.38;;;;;;;;;;6254658;28;20045;-65
2022/10/09 03:01:38;;;;;;;41.60;30.60;;;;;;;;;;6258949;28;20045;-65
2022/10/09 03:04:39;;;;;;;39.95;30.00;;;;;;;;;;6262065;28;20053;-65
2022/10/09 03:07:49;;;;;;;43.97;30.73;;;;;;;;;;6264317;28;20061;-65
2022/10/09 03:10:50;;;;;;;44.40;31.67;;;;;;;;;;6263692;28;20085;-65
2022/10/09 03:13:54;;;;;;;38.30;29.42;;;;;;;;;;6259924;28;20061;-65
2022/10/09 03:16:56;;;;;;;;;;;;;;;;;;6261334;28;20054;-65
2022/10/09 03:19:58;;;;;;;41.13;30.15;;;;;;;;;;6258673;28;19925;-69
2022/10/09 03:22:59;;;;;;;46.03;32.30;;;;;;;;;;6262635;28;20171;-65
2022/10/09 03:26:03;;;;;;;42.97;30.95;;;;;;;;;;6262705;28;20052;-66
2022/10/09 03:29:06;;;;;;;42.92;31.23;;;;;;;;;;6264653;28;20455;-66
2022/10/09 03:32:08;;;;;;;43.97;31.83;;;;;;;;;;6269193;28;20277;-66
2022/10/09 03:35:10;;;;;;;42.55;31.40;;;;;;;;;;6254962;28;20049;-67
2022/10/09 03:38:11;;;;;;;42.22;30.90;;;;;;;;;;6259013;28;20333;-65
2022/10/09 03:41:13;;;;;;;41.80;31.13;;;;;;;;;;6258490;28;20057;-65
2022/10/09 03:44:16;;;;;;;42.90;30.55;;;;;;;;;;6259817;28;20045;-65
2022/10/09 03:47:17;;;;;;;46.65;31.77;;;;;;;;;;6257044;28;20526;-66
2022/10/09 03:50:19;;;;;;;41.95;31.48;;;;;;;;;;6257396;28;20061;-66
2022/10/09 03:53:21;;;;;;;42.00;31.63;;;;;;;;;;6253712;28;20045;-67
2022/10/09 03:56:22;;;;;;;41.58;29.85;;;;;;;;;;6252866;28;20046;-67
2022/10/09 03:59:25;;;;;;;40.95;29.30;;;;;;;;;;6257198;28;20280;-67
2022/10/09 04:02:27;;;;;;;42.75;29.27;;;;;;;;;;6261227;28;20241;-67
2022/10/09 04:05:29;;;;;;;46.15;31.05;;;;;;;;;;6260061;28;20053;-66
2022/10/09 04:08:31;;;;;;;40.90;30.52;;;;;;;;;;6254831;28;20129;-65
2022/10/09 04:11:33;;;;;;;39.13;29.13;;;;;;;;;;6254374;28;20355;-65
2022/10/09 04:14:36;;;;;;;40.38;28.80;;;;;;;;;;6249991;28;20087;-65
2022/10/09 04:17:37;;;;;;;43.33;30.25;;;;;;;;;;6256359;28;20045;-65
2022/10/09 04:20:39;;;;;;;39.60;29.08;;;;;;;;;;6251766;28;20155;-66
2022/10/09 04:23:41;;;;;;;40.10;29.33;;;;;;;;;;6257396;28;20053;-65
2022/10/09 04:26:42;;;;;;;39.92;29.05;;;;;;;;;;6255743;28;20338;-66
2022/10/09 04:29:45;;;;;;;36.45;28.75;;;;;;;;;;6254887;28;20061;-65
2022/10/09 04:32:47;;;;;;;43.60;30.67;;;;;;;;;;6256994;28;20057;-66
2022/10/09 04:35:51;;;;;;;39.22;28.88;;;;;;;;;;6256745;28;20107;-65
2022/10/09 04:38:53;;;;;;;41.85;30.27;;;;;;;;;;6258486;28;20041;-65
2022/10/09 04:41:54;;;;;;;37.78;28.63;;;;;;;;;;6255528;28;20053;-66
2022/10/09 04:44:57;;;;;;;39.63;28.88;;;;;;;;;;6257237;28;20080;-65
2022/10/09 04:47:59;;;;;;;40.40;29.17;;;;;;;;;;6256695;28;20067;-65
2022/10/09 04:51:03;;;;;;;38.90;29.40;;;;;;;;;;6255116;28;20050;-65
2022/10/09 04:54:05;;;;;;;37.90;28.73;;;;;;;;;;6257854;28;20045;-65
2022/10/09 04:57:07;;;;;;;39.38;29.05;;;;;;;;;;6260018;28;20049;-66
2022/10/09 05:00:11;;;;;;;36.92;28.10;;;;;;;;;;6260706;28;20045;-66
2022/10/09 05:03:13;;;;;;;37.95;27.70;;;;;;;;;;6258996;28;20057;-67
2022/10/09 05:06:16;;;;;;;40.85;29.45;;;;;;;;;;6258020;28;20336;-67
2022/10/09 05:09:17;;;;;;;35.63;28.38;;;;;;;;;;6258813;28;20073;-68
2022/10/09 05:12:19;;;;;;;39.47;27.80;;;;;;;;;;6258772;28;20057;-67
2022/10/09 05:15:22;;;;;;;38.75;27.85;;;;;;;;;;6259442;28;20056;-67
2022/10/09 05:18:24;;;;;;;37.67;29.08;;;;;;;;;;6256077;28;20054;-67
2022/10/09 05:21:26;;;;;;;36.78;28.90;;;;;;;;;;6255126;28;20230;-67
2022/10/09 05:24:28;;;;;;;38.53;27.92;;;;;;;;;;6262469;28;20329;-71
2022/10/09 05:27:30;;;;;;;40.40;27.60;;;;;;;;;;6258324;28;20053;-67
2022/10/09 05:30:33;;;;;;;41.80;28.42;;;;;;;;;;6257757;28;20056;-64
2022/10/09 05:33:35;;;;;;;36.33;27.55;;;;;;;;;;6295684;28;20110;-64
2022/10/09 05:36:37;;;;;;;36.85;28.55;;;;;;;;;;6300706;28;20363;-65
2022/10/09 05:39:38;;;;;;;39.58;28.05;;;;;;;;;;6302806;28;20048;-64
2022/10/09 05:42:40;;;;;;;39.85;29.52;;;;;;;;;;6316126;28;20101;-65
2022/10/09 05:45:43;;;;;;;41.72;29.58;;;;;;;;;;6327007;28;20341;-64
2022/10/09 05:48:47;;;;;;;40.35;30.23;;;;;;;;;;6328851;28;20274;-68
2022/10/09 05:51:49;;;;;;;39.95;30.00;;;;;;;;;;6334728;28;20051;-64
2022/10/09 05:54:51;;;;;;;40.67;29.13;;;;;;;;;;6330349;28;20412;-65
2022/10/09 05:57:52;;;;;;;40.58;29.45;;;;;;;;;;6331749;28;20585;-63
2022/10/09 06:00:59;;;;;;;40.50;30.05;;;;;;;;;;6335377;28;20051;-63
2022/10/09 06:04:02;;;;;;;40.97;30.45;;;;;;;;;;6331511;28;20036;-64
2022/10/09 06:07:03;;;;;;;41.47;30.48;;;;;;;;;;6332313;28;20066;-63
2022/10/09 06:10:05;;;;;;;43.92;31.08;;;;;;;;;;6331425;28;20101;-63
2022/10/09 06:13:07;;;;;;;43.03;32.30;;;;;;;;;;6330410;28;20048;-64
2022/10/09 06:16:11;;;;;;;44.65;31.80;;;;;;;;;;6330140;28;20048;-66
2022/10/09 06:19:15;;;;;;;42.58;31.20;;;;;;;;;;6324477;28;20332;-65
2022/10/09 06:22:17;;;;;;;44.20;32.00;;;;;;;;;;6329830;28;20058;-65
2022/10/09 06:25:18;;;;;;;43.80;32.10;;;;;;;;;;6326427;28;20048;-64
2022/10/09 06:28:20;;;;;;;42.55;31.77;;;;;;;;;;6326206;28;20102;-65
2022/10/09 06:31:26;;;;;;;41.58;31.30;;;;;;;;;;6325353;28;20052;-65
2022/10/09 06:34:27;;;;;;;42.70;32.45;;;;;;;;;;6323017;28;20124;-65
2022/10/09 06:37:29;;;;;;;43.65;32.22;;;;;;;;;;6323734;28;20052;-64
2022/10/09 06:40:30;;;;;;;38.17;32.17;;;;;;;;;;6327070;28;20040;-65
2022/10/09 06:43:32;;;;;;;38.40;31.45;;;;;;;;;;6327575;28;20056;-64
2022/10/09 06:46:37;;;;;;;36.35;29.95;;;;;;;;;;6328432;28;20059;-65
2022/10/09 06:49:39;;;;;;;40.58;31.13;;;;;;;;;;6325932;28;20060;-64
2022/10/09 06:52:40;;;;;;;40.38;31.83;;;;;;;;;;6325993;28;20359;-66
2022/10/09 06:55:51;;;;;;;36.25;27.95;;;;;;;;;;6328493;28;20054;-68
2022/10/09 06:58:53;;;;;;;32.53;26.95;;;;;;;;;;6328276;28;20047;-66
2022/10/09 07:01:56;;;;;;;35.60;27.00;;;;;;;;;;6330238;28;20150;-64
2022/10/09 07:04:58;;;;;;;34.88;26.13;;;;;;;;;;6324193;28;20048;-64
2022/10/09 07:07:59;;;;;;;31.42;26.30;;;;;;;;;;6327189;28;20047;-67
2022/10/09 07:11:08;;;;;;;35.88;28.33;;;;;;;;;;6332800;28;20113;-65
2022/10/09 07:14:10;;;;;;;35.03;26.50;;;;;;;;;;6331846;28;20395;-65
2022/10/09 07:17:13;;;;;;;34.78;27.13;;;;;;;;;;6331028;28;20048;-65
2022/10/09 07:20:15;;;;;;;34.05;26.63;;;;;;;;;;6330927;28;20044;-64
2022/10/09 07:23:17;;;;;;;36.20;25.98;;;;;;;;;;6331572;28;20075;-65
2022/10/09 07:26:20;;;;;;;35.42;26.58;;;;;;;;;;6331140;28;20059;-64
2022/10/09 07:29:22;;;;;;;32.78;26.48;;;;;;;;;;6332062;28;20217;-64
2022/10/09 07:32:25;;;;;;;34.90;27.10;;;;;;;;;;6331799;28;20256;-68
2022/10/09 07:35:26;;;;;;;34.47;28.05;;;;;;;;;;6329591;28;20051;-64
2022/10/09 07:38:28;;;;;;;34.30;27.80;;;;;;;;;;6329418;28;20289;-64
2022/10/09 07:41:30;;;;;;;34.88;27.55;;;;;;;;;;6334598;28;20100;-67
2022/10/09 07:44:32;;;;;;;34.95;28.27;;;;;;;;;;6338810;28;20051;-64
2022/10/09 07:47:35;;;;;;;37.72;29.08;;;;;;;;;;6339010;28;20052;-64
2022/10/09 07:50:37;;;;;;;38.20;31.25;;;;;;;;;;6332632;28;20090;-64
2022/10/09 07:53:38;;;;;;;42.72;31.40;;;;;;;;;;6330492;28;20060;-64
2022/10/09 07:56:40;;;;;;;41.28;32.10;;;;;;;;;;6329051;28;20043;-64
2022/10/09 07:59:42;;;;;;;38.33;31.08;;;;;;;;;;6330076;28;20063;-67
2022/10/09 08:02:45;;;;;;;40.75;32.92;;;;;;;;;;6330875;28;20070;-65
2022/10/09 08:05:54;;;;;;;46.22;33.42;;;;;;;;;;6332371;28;20288;-64
2022/10/09 08:08:57;;;;;;;41.15;33.40;;;;;;;;;;6330716;28;20059;-64
2022/10/09 08:11:58;;;;;;;44.80;33.55;;;;;;;;;;6328204;28;20055;-65
2022/10/09 08:15:00;;;;;;;41.33;32.63;;;;;;;;;;6332781;28;20101;-64
2022/10/09 08:18:03;;;;;;;41.72;32.90;;;;;;;;;;6329170;28;20332;-66
2022/10/09 08:21:07;;;;;;;40.03;33.17;;;;;;;;;;6329192;28;20056;-65
2022/10/09 08:24:10;;;;;;;38.17;31.13;;;;;;;;;;6330249;28;20194;-65
2022/10/09 08:27:11;;;;;;;43.92;32.33;;;;;;;;;;6327183;28;20333;-65
2022/10/09 08:30:13;;;;;;;39.35;31.13;;;;;;;;;;6327841;28;20087;-67
2022/10/09 08:33:20;;;;;;;42.42;33.00;;;;;;;;;;6326251;28;20064;-65
2022/10/09 08:36:22;;;;;;;40.20;32.22;;;;;;;;;;6329107;28;20220;-66
2022/10/09 08:39:24;;;;;;;40.20;31.80;;;;;;;;;;6330827;28;20323;-64
2022/10/09 08:42:30;;;;;;;42.40;33.17;;;;;;;;;;6329182;28;20097;-64
2022/10/09 08:45:33;;;;;;;41.10;32.38;;;;;;;;;;6329380;28;20055;-65
2022/10/09 08:48:41;;;;;;;42.08;33.90;;;;;;;;;;6329648;28;20800;-65
2022/10/09 08:51:45;;;;;;;43.50;33.85;;;;;;;;;;6328812;28;20101;-64
2022/10/09 08:54:46;;;;;;;42.80;33.35;;;;;;;;;;6327839;28;20358;-63
2022/10/09 08:57:51;;;;;;;41.20;32.42;;;;;;;;;;6328573;28;20271;-64
2022/10/09 09:00:54;;;;;;;45.40;32.85;;;;;;;;;;6329787;28;20399;-63
2022/10/09 09:04:21;;;;;;;45.33;33.05;;;;;;;;;;6328080;28;20048;-66
2022/10/09 09:07:27;;;;;;;42.78;32.80;;;;;;;;;;6327175;28;20055;-63
2022/10/09 09:10:36;;;;;;;44.17;32.95;;;;;;;;;;6326227;28;20067;-64
2022/10/09 09:13:48;;;;;;;43.78;34.25;;;;;;;;;;6328762;28;20266;-64
2022/10/09 09:16:54;;;;;;;45.90;34.33;;;;;;;;;;6327899;28;20335;-63
2022/10/09 09:20:04;;;;;;;44.25;34.80;;;;;;;;;;6325403;28;20320;-63
2022/10/09 09:23:10;;;;;;;46.45;35.10;;;;;;;;;;6328600;28;20048;-62
2022/10/09 09:26:14;;;;;;;48.97;34.17;;;;;;;;;;6328131;28;20110;-64
2022/10/09 09:29:17;;;;;;;46.33;36.00;;;;;;;;;;6326088;28;20040;-65
2022/10/09 09:32:20;;;;;;;;;;;;;;;;;;6328516;28;20121;-65
2022/10/09 09:35:28;;;;;;;46.78;36.10;;;;;;;;;;6327857;28;19926;-62
2022/10/09 09:38:30;;;;;;;48.85;37.05;;;;;;;;;;6327628;28;20047;-63
2022/10/09 09:41:31;;;;;;;47.30;36.85;;;;;;;;;;6326532;28;20051;-63
2022/10/09 09:44:34;;;;;;;48.72;36.50;;;;;;;;;;6326034;28;20047;-63
2022/10/09 09:47:39;;;;;;;50.23;37.17;;;;;;;;;;6327287;28;20051;-63
2022/10/09 09:50:42;;;;;;;50.85;36.65;;;;;;;;;;6328247;28;20059;-65
2022/10/09 09:53:44;;;;;;;;;;;;;;;;;;6328273;28;20048;-63
2022/10/09 09:56:46;;;;;;;52.38;37.67;;;;;;;;;;6329096;28;20616;-64
2022/10/09 09:59:48;;;;;;;43.75;35.97;;;;;;;;;;6325363;28;20044;-64
2022/10/09 10:02:50;;;;;;;45.55;35.58;;;;;;;;;;6327391;28;20319;-68
2022/10/09 10:05:54;;;;;;;46.65;36.67;;;;;;;;;;6328531;28;20040;-63
2022/10/09 10:09:01;;;;;;;49.03;35.88;;;;;;;;;;6326386;28;20126;-63
2022/10/09 10:12:03;;;;;;;46.60;35.58;;;;;;;;;;6329378;28;20051;-63
2022/10/09 10:15:06;;;;;;;47.90;35.83;;;;;;;;;;6326841;28;20270;-67
2022/10/09 10:18:13;;;;;;;42.88;35.30;;;;;;;;;;6328411;28;20078;-63
2022/10/09 10:21:18;;;;;;;47.78;36.40;;;;;;;;;;6327195;28;20056;-67
2022/10/09 10:24:22;;;;;;;47.83;36.20;;;;;;;;;;6329726;28;20072;-64
2022/10/09 10:27:26;;;;;;;46.28;34.30;;;;;;;;;;6330234;28;20055;-64
2022/10/09 10:30:28;;;;;;;44.58;33.20;;;;;;;;;;6326131;28;20105;-64
2022/10/09 10:33:32;;;;;;;43.05;33.40;;;;;;;;;;6324658;28;20105;-63
2022/10/09 10:36:36;;;;;;;43.15;34.33;;;;;;;;;;6326125;28;20036;-63
2022/10/09 10:39:42;;;;;;;41.90;32.72;;;;;;;;;;6326943;28;20044;-63
2022/10/09 10:42:48;;;;;;;45.38;34.20;;;;;;;;;;6327678;28;20055;-66
2022/10/09 10:45:59;;;;;;;40.42;31.55;;;;;;;;;;6330975;28;20048;-64
2022/10/09 10:49:01;;;;;;;44.05;32.70;;;;;;;;;;6331966;28;20284;-63
2022/10/09 10:52:20;;;;;;;41.35;31.75;;;;;;;;;;6330369;28;20056;-63
2022/10/09 10:55:31;;;;;;;43.70;32.72;;;;;;;;;;6334157;28;20044;-64
2022/10/09 10:58:41;;;;;;;41.08;32.42;;;;;;;;;;6330151;28;20271;-64
2022/10/09 11:01:49;;;;;;;41.42;31.50;;;;;;;;;;6332362;28;20059;-64
2022/10/09 11:04:55;;;;;;;46.00;32.60;;;;;;;;;;6331134;28;20070;-64
2022/10/09 11:08:11;;;;;;;46.13;32.53;;;;;;;;;;6331493;28;20044;-66
2022/10/09 11:11:18;;;;;;;41.35;32.17;;;;;;;;;;6333584;28;20322;-63
2022/10/09 11:14:29;;;;;;;45.53;32.47;;;;;;;;;;6331825;28;20058;-64
2022/10/09 11:17:36;;;;;;;45.55;33.13;;;;;;;;;;6332747;28;20112;-64
2022/10/09 11:20:52;;;;;;;41.15;32.92;;;;;;;;;;6330589;28;20093;-65
2022/10/09 11:24:25;;;;;;;43.22;32.25;;;;;;;;;;6331195;28;20077;-64
2022/10/09 11:27:33;;;;;;;45.88;32.53;;;;;;;;;;6311782;28;20047;-64
2022/10/09 11:30:39;;;;;;;44.67;32.20;;;;;;;;;;6329990;28;20056;-65
2022/10/09 11:33:43;;;;;;;43.42;31.60;;;;;;;;;;6328369;28;20320;-65
2022/10/09 11:36:45;;;;;;;42.92;31.48;;;;;;;;;;6328248;28;20266;-64
2022/10/09 11:39:48;;;;;;;42.60;31.08;;;;;;;;;;6329366;28;20056;-64
2022/10/09 11:42:56;;;;;;;42.42;31.92;;;;;;;;;;6330257;28;20056;-64
2022/10/09 11:46:01;;;;;;;46.72;31.10;;;;;;;;;;6329343;28;20331;-66
2022/10/09 11:49:09;;;;;;;44.40;33.58;;;;;;;;;;6328008;28;20346;-65
2022/10/09 11:52:18;;;;;;;42.33;32.90;;;;;;;;;;6329770;28;20059;-64
2022/10/09 11:55:23;;;;;;;42.20;32.28;;;;;;;;;;6330693;28;20044;-67
2022/10/09 11:58:25;;;;;;;43.47;31.85;;;;;;;;;;6338344;28;20053;-65
2022/10/09 12:01:32;;;;;;;40.97;31.83;;;;;;;;;;6335920;28;20362;-64
2022/10/09 12:04:34;;;;;;;36.70;29.13;;;;;;;;;;6331245;27;20040;-65
2022/10/09 12:07:37;;;;;;;37.17;30.15;;;;;;;;;;6366693;27;20058;-64
2022/10/09 12:10:42;;;;;;;38.67;30.00;;;;;;;;;;6359003;27;20079;-65
2022/10/09 12:13:48;;;;;;;36.75;30.15;;;;;;;;;;6356715;27;20920;-64
2022/10/09 12:16:49;;;;;;;36.35;28.65;;;;;;;;;;6356792;27;20327;-64
2022/10/09 12:19:54;;;;;;;37.08;28.75;;;;;;;;;;6354678;27;20051;-65
2022/10/09 12:23:00;;;;;;;34.88;27.17;;;;;;;;;;6359227;27;20114;-64
2022/10/09 12:26:04;;;;;;;36.75;29.73;;;;;;;;;;6356190;27;20049;-65
2022/10/09 12:29:05;;;;;;;;;;;;;;;;;;6358621;27;20055;-65
2022/10/09 12:32:14;;;;;;;36.63;29.17;;;;;;;;;;6354096;27;20598;-64
2022/10/09 12:35:22;;;;;;;38.90;27.60;;;;;;;;;;6353968;27;20088;-64
2022/10/09 12:38:26;;;;;;;34.88;28.27;;;;;;;;;;6356112;27;20108;-64
2022/10/09 12:41:30;;;;;;;33.60;26.83;;;;;;;;;;6358207;27;20055;-66
2022/10/09 12:44:34;;;;;;;35.55;27.90;;;;;;;;;;6358312;27;20044;-64
2022/10/09 12:47:35;;;;;;;37.70;27.95;;;;;;;;;;6353639;27;20052;-65
2022/10/09 12:50:37;;;;;;;34.05;26.42;;;;;;;;;;6355748;27;20100;-65
2022/10/09 12:53:46;;;;;;;37.17;28.80;;;;;;;;;;6353936;27;20397;-64
2022/10/09 12:56:49;;;;;;;36.88;30.02;;;;;;;;;;6355854;27;20208;-63
2022/10/09 12:59:51;;;;;;;33.20;27.45;;;;;;;;;;6353266;27;20056;-64
2022/10/09 13:02:52;;;;;;;32.53;27.00;;;;;;;;;;6354062;27;20063;-65
2022/10/09 13:05:57;;;;;;;33.05;27.58;;;;;;;;;;6354353;27;20114;-65
2022/10/09 13:09:01;;;;;;;35.58;27.83;;;;;;;;;;6354630;27;20051;-65
2022/10/09 13:12:09;;;;;;;34.05;27.13;;;;;;;;;;6352810;27;20043;-64
2022/10/09 13:15:29;;;;;;;32.90;26.77;;;;;;;;;;6354372;27;21442;-64
2022/10/09 13:18:30;;;;;;;31.92;26.23;;;;;;;;;;6352519;27;20079;-66
2022/10/09 13:21:34;;;;;;;32.30;26.27;;;;;;;;;;6352065;27;20424;-66
2022/10/09 13:24:36;;;;;;;31.45;25.85;;;;;;;;;;6351988;27;20072;-64
2022/10/09 13:27:39;;;;;;;31.92;26.90;;;;;;;;;;6352439;27;20058;-64
2022/10/09 13:30:41;;;;;;;28.88;23.65;;;;;;;;;;6352662;27;20047;-65
2022/10/09 13:33:43;;;;;;;29.05;23.35;;;;;;;;;;6350115;27;20228;-65
2022/10/09 13:36:45;;;;;;;27.40;22.13;;;;;;;;;;6353267;27;20173;-66
2022/10/09 13:39:47;;;;;;;25.15;21.77;;;;;;;;;;6349605;28;20335;-65
2022/10/09 13:42:54;;;;;;;24.05;19.90;;;;;;;;;;6353555;27;20100;-64
2022/10/09 13:45:56;;;;;;;22.60;18.90;;;;;;;;;;6353194;27;20066;-65
2022/10/09 13:48:57;;;;;;;22.73;19.15;;;;;;;;;;6352955;27;20366;-66
2022/10/09 13:51:59;;;;;;;21.88;18.67;;;;;;;;;;6354872;27;20051;-67
2022/10/09 13:55:01;;;;;;;20.48;17.60;;;;;;;;;;6353181;27;20047;-64
2022/10/09 13:58:04;;;;;;;20.38;17.10;;;;;;;;;;6351708;28;20089;-65
2022/10/09 14:01:06;;;;;;;23.10;17.45;;;;;;;;;;6350752;28;20073;-63
2022/10/09 14:04:08;;;;;;;20.60;17.15;;;;;;;;;;6354743;28;20110;-63
2022/10/09 14:07:09;;;;;;;20.15;16.73;;;;;;;;;;6353493;28;20354;-68
2022/10/09 14:10:11;;;;;;;22.83;17.27;;;;;;;;;;6353878;28;20051;-66
2022/10/09 14:13:15;;;;;;;21.73;17.02;;;;;;;;;;6353308;28;20058;-65
2022/10/09 14:16:16;;;;;;;;;;;;;;;;;;6355408;28;20047;-67
2022/10/09 14:19:18;;;;;;;19.88;15.27;;;;;;;;;;6356983;27;21065;-65
2022/10/09 14:22:20;;;;;;;18.23;15.90;;;;;;;;;;6357707;27;20047;-65
2022/10/09 14:25:22;;;;;;;22.45;15.80;;;;;;;;;;6358410;27;20070;-64
2022/10/09 14:28:24;;;;;;;19.75;16.05;;;;;;;;;;6358096;27;20124;-66
2022/10/09 14:31:26;;;;;;;18.88;16.50;;;;;;;;;;6355783;27;20050;-63
2022/10/09 14:34:28;;;;;;;18.33;15.30;;;;;;;;;;6350606;27;20085;-65
2022/10/09 14:37:30;;;;;;;17.50;14.50;;;;;;;;;;6358488;27;20043;-63
2022/10/09 14:40:32;;;;;;;19.15;14.88;;;;;;;;;;6362771;27;20051;-64
2022/10/09 14:43:35;;;;;;;17.75;14.68;;;;;;;;;;6363417;27;20059;-64
2022/10/09 14:46:38;;;;;;;15.75;13.88;;;;;;;;;;6360502;27;20104;-65
2022/10/09 14:49:39;;;;;;;17.75;14.65;;;;;;;;;;6358209;27;20088;-65
2022/10/09 14:52:41;;;;;;;22.92;18.00;;;;;;;;;;6354666;27;20136;-65
2022/10/09 14:55:43;;;;;;;19.63;15.20;;;;;;;;;;6354003;27;20104;-65
2022/10/09 14:58:47;;;;;;;18.25;14.05;;;;;;;;;;6355999;27;20052;-65
2022/10/09 15:01:48;;;;;;;17.48;13.32;;;;;;;;;;6354243;27;20237;-64
2022/10/09 15:04:50;;;;;;;15.30;12.05;;;;;;;;;;6358000;27;20055;-64
2022/10/09 15:07:52;;;;;;;15.60;12.63;;;;;;;;;;6360305;27;20050;-65
2022/10/09 15:10:53;;;;;;;17.20;12.52;;;;;;;;;;6357788;27;20096;-63
2022/10/09 15:13:56;;;;;;;15.85;13.18;;;;;;;;;;6347647;27;20457;-65
2022/10/09 15:16:58;;;;;;;18.20;13.02;;;;;;;;;;6337242;27;20074;-64
2022/10/09 15:20:00;;;;;;;14.23;12.05;;;;;;;;;;6358147;27;20058;-65
2022/10/09 15:23:01;;;;;;;14.75;12.48;;;;;;;;;;6362265;27;20043;-64
2022/10/09 15:26:03;;;;;;;15.60;12.57;;;;;;;;;;6362175;27;20054;-68
2022/10/09 15:29:07;;;;;;;17.35;12.75;;;;;;;;;;6360997;27;20399;-64
2022/10/09 15:32:09;;;;;;;16.02;12.07;;;;;;;;;;6362538;27;20051;-64
2022/10/09 15:35:11;;;;;;;18.17;12.77;;;;;;;;;;6361929;27;20238;-64
2022/10/09 15:38:14;;;;;;;14.32;11.85;;;;;;;;;;6355841;27;20235;-64
2022/10/09 15:41:21;;;;;;;14.70;11.90;;;;;;;;;;6360885;27;20110;-63
2022/10/09 15:44:24;;;;;;;12.68;11.27;;;;;;;;;;6362107;27;20044;-63
2022/10/09 15:47:26;;;;;;;15.13;12.18;;;;;;;;;;6358585;27;20323;-65
2022/10/09 15:50:27;;;;;;;14.65;11.13;;;;;;;;;;6355051;27;20335;-67
2022/10/09 15:53:29;;;;;;;14.00;11.48;;;;;;;;;;6356214;27;20059;-65
2022/10/09 15:56:31;;;;;;;14.77;11.50;;;;;;;;;;6361545;27;20092;-65
2022/10/09 15:59:37;;;;;;;14.45;11.48;;;;;;;;;;6356733;27;20072;-65
2022/10/09 16:02:38;;;;;;;11.93;10.63;;;;;;;;;;6354518;27;20051;-66
2022/10/09 16:05:42;;;;;;;12.30;11.00;;;;;;;;;;6362485;27;20247;-65
2022/10/09 16:08:45;;;;;;;12.48;11.05;;;;;;;;;;6358192;27;20128;-65
2022/10/09 16:11:46;;;;;;;14.02;10.60;;;;;;;;;;6354168;27;20115;-64
2022/10/09 16:14:50;;;;;;;10.90;9.48;;;;;;;;;;6355915;27;20047;-65
2022/10/09 16:17:53;;;;;;;12.18;8.98;;;;;;;;;;6354225;27;20118;-67
2022/10/09 16:20:54;;;;;;;11.52;8.68;;;;;;;;;;6354043;27;20352;-66
2022/10/09 16:23:57;;;;;;;10.80;7.93;;;;;;;;;;6357279;27;20063;-66
2022/10/09 16:26:59;;;;;;;11.15;7.70;;;;;;;;;;6363943;27;20334;-64
2022/10/09 16:30:02;;;;;;;9.60;7.93;;;;;;;;;;6347283;27;20093;-63
2022/10/09 16:33:04;;;;;;;9.00;7.05;;;;;;;;;;6351603;27;20112;-66
2022/10/09 16:36:08;;;;;;;8.30;6.18;;;;;;;;;;6353605;27;20059;-69
2022/10/09 16:39:09;;;;;;;;;;;;;;;;;;6355384;27;20151;-65
2022/10/09 16:42:11;;;;;;;7.18;5.80;;;;;;;;;;6348971;27;19982;-68
2022/10/09 16:45:15;;;;;;;7.95;5.38;;;;;;;;;;6349379;27;20055;-66
2022/10/09 16:48:16;;;;;;;7.55;5.55;;;;;;;;;;6352283;27;21042;-64
2022/10/09 16:51:22;;;;;;;8.60;5.32;;;;;;;;;;6351608;27;20062;-64
2022/10/09 16:54:24;;;;;;;9.95;5.32;;;;;;;;;;6349185;27;20049;-65
2022/10/09 16:57:25;;;;;;;6.60;5.43;;;;;;;;;;6350764;27;20058;-65
2022/10/09 17:00:28;;;;;;;6.03;5.07;;;;;;;;;;6351025;27;20232;-67
2022/10/09 17:03:30;;;;;;;7.75;5.28;;;;;;;;;;6350438;27;20055;-68
2022/10/09 17:06:32;;;;;;;8.10;5.30;;;;;;;;;;6350297;27;20047;-69
2022/10/09 17:09:35;;;;;;;9.43;5.20;;;;;;;;;;6353941;27;20039;-66
2022/10/09 17:12:37;;;;;;;6.50;4.95;;;;;;;;;;6353059;27;20043;-66
2022/10/09 17:15:41;;;;;;;8.52;5.07;;;;;;;;;;6353736;27;20051;-65
2022/10/09 17:18:43;;;;;;;6.25;5.28;;;;;;;;;;6351967;27;20055;-66
2022/10/09 17:21:45;;;;;;;8.38;5.70;;;;;;;;;;6351636;27;20349;-68
2022/10/09 17:24:46;;;;;;;6.97;5.35;;;;;;;;;;6350956;27;20062;-67
2022/10/09 17:27:48;;;;;;;8.38;5.78;;;;;;;;;;6351647;27;20239;-65
2022/10/09 17:30:51;;;;;;;9.23;5.60;;;;;;;;;;6350762;27;20595;-65
2022/10/09 17:33:55;;;;;;;12.60;6.22;;;;;;;;;;6348374;27;20071;-70
2022/10/09 17:36:56;;;;;;;11.63;6.25;;;;;;;;;;6351653;27;20050;-66
2022/10/09 17:39:58;;;;;;;7.53;5.47;;;;;;;;;;6350934;27;20063;-68
2022/10/09 17:43:00;;;;;;;7.40;5.88;;;;;;;;;;6350961;27;20050;-64
2022/10/09 17:46:04;;;;;;;7.57;6.03;;;;;;;;;;6352883;27;20100;-64
2022/10/09 17:49:05;;;;;;;;;;;;;;;;;;6353578;27;20051;-65
2022/10/09 17:52:07;;;;;;;9.35;6.43;;;;;;;;;;6349341;27;20188;-64